createdAt,value
2023-05-21T00:00:04.808Z,23.10
2023-05-21T00:01:04.819Z,23.11
2023-05-21T00:02:04.826Z,23.13
2023-05-21T00:03:04.913Z,23.14
2023-05-21T00:04:04.910Z,23.14
2023-05-21T00:05:04.899Z,23.15
2023-05-21T00:06:04.946Z,23.16
2023-05-21T00:07:04.942Z,23.16
2023-05-21T00:08:04.969Z,23.16
2023-05-21T00:09:04.998Z,23.16
2023-05-21T00:10:05.015Z,23.16
2023-05-21T00:11:05.041Z,23.16
2023-05-21T00:12:05.091Z,23.15
2023-05-21T00:13:05.072Z,23.16
2023-05-21T00:14:05.096Z,23.16
2023-05-21T00:15:05.130Z,23.16
2023-05-21T00:16:05.237Z,23.16
2023-05-21T00:17:05.145Z,23.15
2023-05-21T00:18:05.280Z,23.16
2023-05-21T00:19:05.261Z,23.15
2023-05-21T00:20:05.240Z,23.16
2023-05-21T00:21:05.237Z,23.15
2023-05-21T00:22:05.280Z,23.15
2023-05-21T00:23:05.330Z,23.15
2023-05-21T00:24:05.328Z,23.15
2023-05-21T00:25:05.376Z,23.14
2023-05-21T00:26:05.404Z,23.15
2023-05-21T00:27:05.416Z,23.14
2023-05-21T00:28:05.462Z,23.15
2023-05-21T00:29:05.466Z,23.13
2023-05-21T00:30:05.586Z,23.14
2023-05-21T00:31:05.532Z,23.13
2023-05-21T00:32:05.553Z,23.13
2023-05-21T00:33:05.658Z,23.13
2023-05-21T00:34:05.625Z,23.14
2023-05-21T00:35:05.636Z,23.14
2023-05-21T00:36:05.651Z,23.13
2023-05-21T00:37:05.673Z,23.13
2023-05-21T00:38:05.704Z,23.12
2023-05-21T00:39:05.741Z,23.13
2023-05-21T00:40:05.776Z,23.13
2023-05-21T00:41:05.803Z,23.12
2023-05-21T00:42:05.841Z,23.12
2023-05-21T00:43:05.863Z,23.12
2023-05-21T00:44:05.908Z,23.12
2023-05-21T00:45:05.931Z,23.13
2023-05-21T00:46:05.961Z,23.12
2023-05-21T00:47:05.989Z,23.12
2023-05-21T00:48:06.058Z,23.11
2023-05-21T00:49:06.046Z,23.11
2023-05-21T00:50:06.083Z,23.12
2023-05-21T00:51:06.127Z,23.11
2023-05-21T00:52:06.139Z,23.11
2023-05-21T00:53:06.180Z,23.11
2023-05-21T00:54:06.205Z,23.11
2023-05-21T00:55:06.234Z,23.11
2023-05-21T00:56:06.299Z,23.10
2023-05-21T00:57:06.292Z,23.10
2023-05-21T00:58:06.336Z,23.10
2023-05-21T00:59:06.372Z,23.11
2023-05-21T01:00:06.425Z,23.10
2023-05-21T01:01:06.456Z,23.09
2023-05-21T01:02:06.478Z,23.10
2023-05-21T01:03:06.652Z,23.10
2023-05-21T01:04:06.539Z,23.09
2023-05-21T01:05:06.578Z,23.09
2023-05-21T01:06:06.614Z,23.09
2023-05-21T01:07:06.634Z,23.09
2023-05-21T01:08:06.655Z,23.09
2023-05-21T01:09:06.689Z,23.09
2023-05-21T01:10:06.721Z,23.09
2023-05-21T01:11:06.759Z,23.09
2023-05-21T01:12:06.784Z,23.09
2023-05-21T01:13:06.831Z,23.09
2023-05-21T01:14:06.854Z,23.09
2023-05-21T01:15:06.909Z,23.08
2023-05-21T01:16:06.951Z,23.08
2023-05-21T01:17:07.107Z,23.08
2023-05-21T01:18:07.010Z,23.08
2023-05-21T01:19:07.080Z,23.08
2023-05-21T01:20:09.283Z,23.08
2023-05-21T01:21:07.050Z,23.08
2023-05-21T01:22:07.042Z,23.07
2023-05-21T01:23:07.045Z,23.08
2023-05-21T01:24:07.038Z,23.08
2023-05-21T01:25:07.042Z,23.08
2023-05-21T01:26:07.040Z,23.08
2023-05-21T01:27:07.037Z,23.07
2023-05-21T01:28:07.027Z,23.07
2023-05-21T01:29:07.018Z,23.08
2023-05-21T01:30:07.004Z,23.06
2023-05-21T01:31:07.005Z,23.07
2023-05-21T01:32:07.035Z,23.07
2023-05-21T01:33:07.104Z,23.07
2023-05-21T01:34:07.066Z,23.07
2023-05-21T01:35:06.977Z,23.07
2023-05-21T01:36:06.967Z,23.06
2023-05-21T01:37:06.959Z,23.07
2023-05-21T01:38:06.951Z,23.07
2023-05-21T01:39:06.944Z,23.05
2023-05-21T01:40:06.941Z,23.06
2023-05-21T01:41:06.921Z,23.06
2023-05-21T01:42:06.911Z,23.05
2023-05-21T01:43:06.900Z,23.05
2023-05-21T01:44:06.897Z,23.05
2023-05-21T01:45:06.890Z,23.05
2023-05-21T01:46:06.904Z,23.05
2023-05-21T01:47:06.885Z,23.05
2023-05-21T01:48:06.895Z,23.04
2023-05-21T01:49:06.865Z,23.05
2023-05-21T01:50:06.897Z,23.05
2023-05-21T01:51:06.881Z,23.04
2023-05-21T01:52:06.874Z,23.04
2023-05-21T01:53:06.879Z,23.04
2023-05-21T01:54:06.861Z,23.03
2023-05-21T01:55:06.863Z,23.03
2023-05-21T01:56:06.865Z,23.04
2023-05-21T01:57:06.881Z,23.04
2023-05-21T01:58:06.883Z,23.04
2023-05-21T01:59:06.915Z,23.03
2023-05-21T02:00:06.950Z,23.04
2023-05-21T02:01:07.007Z,23.03
2023-05-21T02:02:07.089Z,23.04
2023-05-21T02:03:07.115Z,23.03
2023-05-21T02:04:07.312Z,23.03
2023-05-21T02:05:07.143Z,23.03
2023-05-21T02:06:07.167Z,23.03
2023-05-21T02:07:07.204Z,23.03
2023-05-21T02:08:07.247Z,23.03
2023-05-21T02:09:07.282Z,23.03
2023-05-21T02:10:07.346Z,23.02
2023-05-21T02:11:07.354Z,23.02
2023-05-21T02:12:07.392Z,23.02
2023-05-21T02:13:07.437Z,23.02
2023-05-21T02:14:07.474Z,23.02
2023-05-21T02:15:07.553Z,23.02
2023-05-21T02:16:07.601Z,23.02
2023-05-21T02:17:07.610Z,23.02
2023-05-21T02:18:07.685Z,23.02
2023-05-21T02:19:07.721Z,23.02
2023-05-21T02:20:07.756Z,23.01
2023-05-21T02:21:07.744Z,23.01
2023-05-21T02:22:07.804Z,23.01
2023-05-21T02:23:07.821Z,23.01
2023-05-21T02:24:07.883Z,23.01
2023-05-21T02:25:07.898Z,23.01
2023-05-21T02:26:07.949Z,23.01
2023-05-21T02:27:07.980Z,23.01
2023-05-21T02:28:08.019Z,23.01
2023-05-21T02:29:08.079Z,23.01
2023-05-21T02:30:08.104Z,23.01
2023-05-21T02:31:08.138Z,23.01
2023-05-21T02:32:08.179Z,23.01
2023-05-21T02:33:08.256Z,23.01
2023-05-21T02:34:08.343Z,23.00
2023-05-21T02:35:08.308Z,23.00
2023-05-21T02:36:08.382Z,23.00
2023-05-21T02:37:08.418Z,23.00
2023-05-21T02:38:08.434Z,23.00
2023-05-21T02:39:08.492Z,23.01
2023-05-21T02:40:08.544Z,23.00
2023-05-21T02:41:08.570Z,22.99
2023-05-21T02:42:08.610Z,22.99
2023-05-21T02:43:08.647Z,22.99
2023-05-21T02:44:08.689Z,22.99
2023-05-21T02:45:08.728Z,23.00
2023-05-21T02:46:08.794Z,22.99
2023-05-21T02:47:08.791Z,22.99
2023-05-21T02:48:08.895Z,22.99
2023-05-21T02:49:08.865Z,22.99
2023-05-21T02:50:08.911Z,22.98
2023-05-21T02:51:08.945Z,22.99
2023-05-21T02:52:09.012Z,22.98
2023-05-21T02:53:09.026Z,22.99
2023-05-21T02:54:09.062Z,22.99
2023-05-21T02:55:09.136Z,22.99
2023-05-21T02:56:09.151Z,22.99
2023-05-21T02:57:09.173Z,22.98
2023-05-21T02:58:09.227Z,22.98
2023-05-21T02:59:09.254Z,22.98
2023-05-21T03:00:09.306Z,22.99
2023-05-21T03:01:09.425Z,22.99
2023-05-21T03:02:09.395Z,22.98
2023-05-21T03:03:09.538Z,22.98
2023-05-21T03:04:09.462Z,22.99
2023-05-21T03:05:09.546Z,22.97
2023-05-21T03:06:09.540Z,22.98
2023-05-21T03:07:09.579Z,22.97
2023-05-21T03:08:09.651Z,22.97
2023-05-21T03:09:09.728Z,22.97
2023-05-21T03:10:09.701Z,22.97
2023-05-21T03:11:09.745Z,22.97
2023-05-21T03:12:09.812Z,22.97
2023-05-21T03:13:10.120Z,22.97
2023-05-21T03:14:09.922Z,22.97
2023-05-21T03:15:09.904Z,22.97
2023-05-21T03:16:09.985Z,22.96
2023-05-21T03:17:09.994Z,22.96
2023-05-21T03:18:10.109Z,22.96
2023-05-21T03:19:10.152Z,22.96
2023-05-21T03:20:10.122Z,22.96
2023-05-21T03:21:10.172Z,22.95
2023-05-21T03:22:10.202Z,22.95
2023-05-21T03:23:10.252Z,22.96
2023-05-21T03:24:10.318Z,22.95
2023-05-21T03:25:10.339Z,22.96
2023-05-21T03:26:10.388Z,22.94
2023-05-21T03:27:10.427Z,22.95
2023-05-21T03:28:10.462Z,22.95
2023-05-21T03:29:10.504Z,22.96
2023-05-21T03:30:10.555Z,22.95
2023-05-21T03:31:10.605Z,22.95
2023-05-21T03:32:10.669Z,22.93
2023-05-21T03:33:10.716Z,22.94
2023-05-21T03:34:10.738Z,22.93
2023-05-21T03:35:10.764Z,22.95
2023-05-21T03:36:10.809Z,22.93
2023-05-21T03:37:10.849Z,22.93
2023-05-21T03:38:10.895Z,22.93
2023-05-21T03:39:10.941Z,22.94
2023-05-21T03:40:11.030Z,22.93
2023-05-21T03:41:11.040Z,22.93
2023-05-21T03:42:11.088Z,22.93
2023-05-21T03:43:11.121Z,22.93
2023-05-21T03:44:11.182Z,22.92
2023-05-21T03:45:11.222Z,22.93
2023-05-21T03:46:11.335Z,22.92
2023-05-21T03:47:11.310Z,22.93
2023-05-21T03:48:11.437Z,22.93
2023-05-21T03:49:11.415Z,22.92
2023-05-21T03:50:11.438Z,22.92
2023-05-21T03:51:11.483Z,22.93
2023-05-21T03:52:11.522Z,22.92
2023-05-21T03:53:11.577Z,22.93
2023-05-21T03:54:11.643Z,22.93
2023-05-21T03:55:11.660Z,22.93
2023-05-21T03:56:11.734Z,22.93
2023-05-21T03:57:11.755Z,22.93
2023-05-21T03:58:11.817Z,22.92
2023-05-21T03:59:11.841Z,22.92
2023-05-21T04:00:11.903Z,22.93
2023-05-21T04:01:11.948Z,22.93
2023-05-21T04:02:12.030Z,22.93
2023-05-21T04:03:12.253Z,22.92
2023-05-21T04:04:12.226Z,22.93
2023-05-21T04:05:12.125Z,22.93
2023-05-21T04:06:12.180Z,22.93
2023-05-21T04:07:12.227Z,22.93
2023-05-21T04:08:12.293Z,22.93
2023-05-21T04:09:12.346Z,22.93
2023-05-21T04:10:12.429Z,22.93
2023-05-21T04:11:12.442Z,22.93
2023-05-21T04:12:12.525Z,22.95
2023-05-21T04:13:12.553Z,22.95
2023-05-21T04:14:12.611Z,22.95
2023-05-21T04:15:12.671Z,22.94
2023-05-21T04:16:12.776Z,22.94
2023-05-21T04:17:12.817Z,22.94
2023-05-21T04:18:12.825Z,22.95
2023-05-21T04:19:12.957Z,22.96
2023-05-21T04:20:12.940Z,22.96
2023-05-21T04:21:13.002Z,22.95
2023-05-21T04:22:13.060Z,22.96
2023-05-21T04:23:13.119Z,22.96
2023-05-21T04:24:13.170Z,22.97
2023-05-21T04:25:13.235Z,22.97
2023-05-21T04:26:13.285Z,22.97
2023-05-21T04:27:13.332Z,22.97
2023-05-21T04:28:13.421Z,22.97
2023-05-21T04:29:13.453Z,22.98
2023-05-21T04:30:13.509Z,22.98
2023-05-21T04:31:13.596Z,22.98
2023-05-21T04:32:13.629Z,22.99
2023-05-21T04:33:13.673Z,22.99
2023-05-21T04:34:13.727Z,22.99
2023-05-21T04:35:13.786Z,22.99
2023-05-21T04:36:13.845Z,23.00
2023-05-21T04:37:14.006Z,22.99
2023-05-21T04:38:13.955Z,23.00
2023-05-21T04:39:14.014Z,23.00
2023-05-21T04:40:14.065Z,23.00
2023-05-21T04:41:14.115Z,23.01
2023-05-21T04:42:14.190Z,23.01
2023-05-21T04:43:14.237Z,23.02
2023-05-21T04:44:14.313Z,23.02
2023-05-21T04:45:14.352Z,23.02
2023-05-21T04:46:14.444Z,23.02
2023-05-21T04:47:14.455Z,23.02
2023-05-21T04:48:14.507Z,23.02
2023-05-21T04:49:14.553Z,23.02
2023-05-21T04:50:14.627Z,23.03
2023-05-21T04:51:14.672Z,23.03
2023-05-21T04:52:14.732Z,23.03
2023-05-21T04:53:14.779Z,23.03
2023-05-21T04:54:14.833Z,23.04
2023-05-21T04:55:14.888Z,23.03
2023-05-21T04:56:14.951Z,23.03
2023-05-21T04:57:14.997Z,23.04
2023-05-21T04:58:15.052Z,23.04
2023-05-21T04:59:15.104Z,23.04
2023-05-21T05:00:15.183Z,23.03
2023-05-21T05:01:15.249Z,23.04
2023-05-21T05:02:15.254Z,23.04
2023-05-21T05:03:15.569Z,23.05
2023-05-21T05:04:15.373Z,23.04
2023-05-21T05:05:15.426Z,23.04
2023-05-21T05:06:15.473Z,23.05
2023-05-21T05:07:16.232Z,23.04
2023-05-21T05:08:16.224Z,23.05
2023-05-21T05:09:15.618Z,23.04
2023-05-21T05:10:15.695Z,23.05
2023-05-21T05:11:15.728Z,23.05
2023-05-21T05:12:15.759Z,23.05
2023-05-21T05:13:15.820Z,23.06
2023-05-21T05:14:15.863Z,23.05
2023-05-21T05:15:15.925Z,23.06
2023-05-21T05:16:15.991Z,23.06
2023-05-21T05:17:16.010Z,23.06
2023-05-21T05:18:16.060Z,23.07
2023-05-21T05:19:16.207Z,23.05
2023-05-21T05:20:16.141Z,23.07
2023-05-21T05:21:16.178Z,23.06
2023-05-21T05:22:16.237Z,23.06
2023-05-21T05:23:16.275Z,23.07
2023-05-21T05:24:16.323Z,23.06
2023-05-21T05:25:16.372Z,23.06
2023-05-21T05:26:16.418Z,23.07
2023-05-21T05:27:16.470Z,23.07
2023-05-21T05:28:16.503Z,23.06
2023-05-21T05:29:16.555Z,23.07
2023-05-21T05:30:16.619Z,23.06
2023-05-21T05:31:16.704Z,23.07
2023-05-21T05:32:16.715Z,23.07
2023-05-21T05:33:16.741Z,23.07
2023-05-21T05:34:16.771Z,23.07
2023-05-21T05:35:16.871Z,23.07
2023-05-21T05:36:16.879Z,23.07
2023-05-21T05:37:16.917Z,23.07
2023-05-21T05:38:16.992Z,23.08
2023-05-21T05:39:16.999Z,23.07
2023-05-21T05:40:17.052Z,23.08
2023-05-21T05:41:17.089Z,23.07
2023-05-21T05:42:17.133Z,23.08
2023-05-21T05:43:17.169Z,23.08
2023-05-21T05:44:17.213Z,23.08
2023-05-21T05:45:17.267Z,23.09
2023-05-21T05:46:17.436Z,23.08
2023-05-21T05:47:17.357Z,23.09
2023-05-21T05:48:17.449Z,23.08
2023-05-21T05:49:17.551Z,23.08
2023-05-21T05:50:17.521Z,23.08
2023-05-21T05:51:17.573Z,23.08
2023-05-21T05:52:17.585Z,23.09
2023-05-21T05:53:17.635Z,23.09
2023-05-21T05:54:17.682Z,23.10
2023-05-21T05:55:17.735Z,23.09
2023-05-21T05:56:17.769Z,23.10
2023-05-21T05:57:17.830Z,23.11
2023-05-21T05:58:17.882Z,23.11
2023-05-21T05:59:18.750Z,23.11
2023-05-21T06:00:17.961Z,23.11
2023-05-21T06:01:18.013Z,23.11
2023-05-21T06:02:18.122Z,23.12
2023-05-21T06:03:18.252Z,23.12
2023-05-21T06:04:18.170Z,23.13
2023-05-21T06:05:18.211Z,23.13
2023-05-21T06:06:18.253Z,23.13
2023-05-21T06:07:18.271Z,23.13
2023-05-21T06:08:18.311Z,23.14
2023-05-21T06:09:18.363Z,23.14
2023-05-21T06:10:18.406Z,23.14
2023-05-21T06:11:18.443Z,23.15
2023-05-21T06:12:18.500Z,23.15
2023-05-21T06:13:18.519Z,23.16
2023-05-21T06:14:18.576Z,23.15
2023-05-21T06:15:18.612Z,23.16
2023-05-21T06:16:18.735Z,23.15
2023-05-21T06:17:18.700Z,23.16
2023-05-21T06:18:18.728Z,23.17
2023-05-21T06:19:18.834Z,23.17
2023-05-21T06:20:18.832Z,23.17
2023-05-21T06:21:18.857Z,23.18
2023-05-21T06:22:18.893Z,23.17
2023-05-21T06:23:18.934Z,23.18
2023-05-21T06:24:18.967Z,23.18
2023-05-21T06:25:19.006Z,23.19
2023-05-21T06:26:19.039Z,23.19
2023-05-21T06:27:19.089Z,23.19
2023-05-21T06:28:19.124Z,23.19
2023-05-21T06:29:19.165Z,23.20
2023-05-21T06:30:19.205Z,23.20
2023-05-21T06:31:19.245Z,23.20
2023-05-21T06:32:19.341Z,23.20
2023-05-21T06:33:19.432Z,23.20
2023-05-21T06:34:19.355Z,23.21
2023-05-21T06:35:19.414Z,23.21
2023-05-21T06:36:19.446Z,23.21
2023-05-21T06:37:19.462Z,23.23
2023-05-21T06:38:19.498Z,23.23
2023-05-21T06:39:19.525Z,23.24
2023-05-21T06:40:19.596Z,23.25
2023-05-21T06:41:19.603Z,23.25
2023-05-21T06:42:19.645Z,23.25
2023-05-21T06:43:19.699Z,23.25
2023-05-21T06:44:19.695Z,23.25
2023-05-21T06:45:19.748Z,23.25
2023-05-21T06:46:19.847Z,23.26
2023-05-21T06:47:19.800Z,23.26
2023-05-21T06:48:19.854Z,23.27
2023-05-21T06:49:19.867Z,23.27
2023-05-21T06:50:19.894Z,23.27
2023-05-21T06:51:19.930Z,23.29
2023-05-21T06:52:19.984Z,23.28
2023-05-21T06:53:19.997Z,23.28
2023-05-21T06:54:20.052Z,23.28
2023-05-21T06:55:20.048Z,23.30
2023-05-21T06:56:20.079Z,23.29
2023-05-21T06:57:20.134Z,23.30
2023-05-21T06:58:20.144Z,23.30
2023-05-21T06:59:20.177Z,23.30
2023-05-21T07:00:20.207Z,23.32
2023-05-21T07:01:20.262Z,23.32
2023-05-21T07:02:20.427Z,23.33
2023-05-21T07:03:20.538Z,23.33
2023-05-21T07:04:20.321Z,23.34
2023-05-21T07:05:20.337Z,23.35
2023-05-21T07:06:20.370Z,23.36
2023-05-21T07:07:20.399Z,23.37
2023-05-21T07:08:20.447Z,23.36
2023-05-21T07:09:20.442Z,23.37
2023-05-21T07:10:20.454Z,23.37
2023-05-21T07:11:20.473Z,23.37
2023-05-21T07:12:20.497Z,23.38
2023-05-21T07:13:20.533Z,23.37
2023-05-21T07:14:20.548Z,23.37
2023-05-21T07:15:20.575Z,23.38
2023-05-21T07:16:20.656Z,23.37
2023-05-21T07:17:20.622Z,23.36
2023-05-21T07:18:20.655Z,23.37
2023-05-21T07:19:20.721Z,23.38
2023-05-21T07:20:20.716Z,23.37
2023-05-21T07:21:20.724Z,23.38
2023-05-21T07:22:20.741Z,23.38
2023-05-21T07:23:20.775Z,23.39
2023-05-21T07:24:20.819Z,23.40
2023-05-21T07:25:20.813Z,23.40
2023-05-21T07:26:20.848Z,23.41
2023-05-21T07:27:25.667Z,23.42
2023-05-21T07:28:20.878Z,23.41
2023-05-21T07:29:20.869Z,23.42
2023-05-21T07:30:20.863Z,23.42
2023-05-21T07:31:20.886Z,23.42
2023-05-21T07:32:20.834Z,23.43
2023-05-21T07:33:20.837Z,23.43
2023-05-21T07:34:20.815Z,23.43
2023-05-21T07:35:20.808Z,23.43
2023-05-21T07:36:20.805Z,23.44
2023-05-21T07:37:20.835Z,23.44
2023-05-21T07:38:20.788Z,23.44
2023-05-21T07:39:20.790Z,23.43
2023-05-21T07:40:20.809Z,23.43
2023-05-21T07:41:20.762Z,23.44
2023-05-21T07:42:20.757Z,23.44
2023-05-21T07:43:20.756Z,23.44
2023-05-21T07:44:20.747Z,23.45
2023-05-21T07:45:20.735Z,23.45
2023-05-21T07:46:20.769Z,23.45
2023-05-21T07:47:20.779Z,23.45
2023-05-21T07:48:20.714Z,23.46
2023-05-21T07:49:20.705Z,23.45
2023-05-21T07:50:20.712Z,23.46
2023-05-21T07:51:20.708Z,23.46
2023-05-21T07:52:20.783Z,23.46
2023-05-21T07:53:20.703Z,23.46
2023-05-21T07:54:20.688Z,23.47
2023-05-21T07:55:20.688Z,23.46
2023-05-21T07:56:20.711Z,23.47
2023-05-21T07:57:21.298Z,23.47
2023-05-21T07:58:20.690Z,23.47
2023-05-21T07:59:20.667Z,23.47
2023-05-21T08:00:20.664Z,23.47
2023-05-21T08:01:20.652Z,23.48
2023-05-21T08:02:20.787Z,23.47
2023-05-21T08:03:20.768Z,23.47
2023-05-21T08:04:20.764Z,23.48
2023-05-21T08:05:20.656Z,23.47
2023-05-21T08:06:20.656Z,23.47
2023-05-21T08:07:20.652Z,23.47
2023-05-21T08:08:20.657Z,23.47
2023-05-21T08:09:20.628Z,23.47
2023-05-21T08:10:20.623Z,23.47
2023-05-21T08:11:20.609Z,23.47
2023-05-21T08:12:20.628Z,23.47
2023-05-21T08:13:20.599Z,23.47
2023-05-21T08:14:20.583Z,23.47
2023-05-21T08:15:20.587Z,23.47
2023-05-21T08:16:20.635Z,23.48
2023-05-21T08:17:20.606Z,23.48
2023-05-21T08:18:20.580Z,23.49
2023-05-21T08:19:20.596Z,23.48
2023-05-21T08:20:20.608Z,23.48
2023-05-21T08:21:20.583Z,23.49
2023-05-21T08:22:20.563Z,23.49
2023-05-21T08:23:20.577Z,23.49
2023-05-21T08:24:20.561Z,23.50
2023-05-21T08:25:20.555Z,23.50
2023-05-21T08:26:20.545Z,23.50
2023-05-21T08:27:20.532Z,23.51
2023-05-21T08:28:20.550Z,23.51
2023-05-21T08:29:20.533Z,23.51
2023-05-21T08:30:20.554Z,23.52
2023-05-21T08:31:20.546Z,23.52
2023-05-21T08:32:20.534Z,23.53
2023-05-21T08:33:21.495Z,23.53
2023-05-21T08:34:20.500Z,23.54
2023-05-21T08:35:20.495Z,23.54
2023-05-21T08:36:20.493Z,23.55
2023-05-21T08:37:20.493Z,23.54
2023-05-21T08:38:20.479Z,23.54
2023-05-21T08:39:20.478Z,23.55
2023-05-21T08:40:20.481Z,23.55
2023-05-21T08:41:20.476Z,23.56
2023-05-21T08:42:35.190Z,23.56
2023-05-21T08:43:20.452Z,23.55
2023-05-21T08:44:20.470Z,23.56
2023-05-21T08:45:20.444Z,23.56
2023-05-21T08:46:20.446Z,23.57
2023-05-21T08:47:20.457Z,23.57
2023-05-21T08:48:20.426Z,23.57
2023-05-21T08:49:20.410Z,23.57
2023-05-21T08:50:20.464Z,23.57
2023-05-21T08:51:20.385Z,23.56
2023-05-21T08:52:20.400Z,23.57
2023-05-21T08:53:28.090Z,23.57
2023-05-21T08:54:20.365Z,23.56
2023-05-21T08:55:20.364Z,23.57
2023-05-21T08:56:20.353Z,23.58
2023-05-21T08:57:20.358Z,23.58
2023-05-21T08:58:20.360Z,23.59
2023-05-21T08:59:20.352Z,23.60
2023-05-21T09:00:20.443Z,23.60
2023-05-21T09:01:20.455Z,23.61
2023-05-21T09:02:20.347Z,23.61
2023-05-21T09:03:20.489Z,23.62
2023-05-21T09:04:21.680Z,23.63
2023-05-21T09:05:20.565Z,23.62
2023-05-21T09:06:20.606Z,23.63
2023-05-21T09:07:20.591Z,23.64
2023-05-21T09:08:20.597Z,23.63
2023-05-21T09:09:20.604Z,23.64
2023-05-21T09:10:20.701Z,23.63
2023-05-21T09:11:20.612Z,23.63
2023-05-21T09:12:20.626Z,23.63
2023-05-21T09:13:20.632Z,23.63
2023-05-21T09:14:20.639Z,23.62
2023-05-21T09:15:20.638Z,23.62
2023-05-21T09:16:20.687Z,23.62
2023-05-21T09:17:20.652Z,23.61
2023-05-21T09:18:20.668Z,23.61
2023-05-21T09:19:20.721Z,23.59
2023-05-21T09:20:20.712Z,23.59
2023-05-21T09:21:20.697Z,23.58
2023-05-21T09:22:20.681Z,23.58
2023-05-21T09:23:20.695Z,23.58
2023-05-21T09:24:20.694Z,23.58
2023-05-21T09:25:20.695Z,23.57
2023-05-21T09:26:20.711Z,23.58
2023-05-21T09:27:20.699Z,23.58
2023-05-21T09:28:20.701Z,23.59
2023-05-21T09:29:20.723Z,23.59
2023-05-21T09:31:19.759Z,23.61
2023-05-21T09:32:20.738Z,23.61
2023-05-21T09:33:20.717Z,23.61
2023-05-21T09:34:20.752Z,23.62
2023-05-21T09:35:20.725Z,23.62
2023-05-21T09:36:20.745Z,23.62
2023-05-21T09:38:20.743Z,23.62
2023-05-21T09:39:20.731Z,23.62
2023-05-21T09:40:20.719Z,23.62
2023-05-21T09:41:22.186Z,23.63
2023-05-21T09:42:20.703Z,23.63
2023-05-21T09:43:20.695Z,23.64
2023-05-21T09:44:20.718Z,23.64
2023-05-21T09:45:20.701Z,23.64
2023-05-21T09:46:20.763Z,23.64
2023-05-21T09:47:20.706Z,23.64
2023-05-21T09:48:20.690Z,23.65
2023-05-21T09:49:20.638Z,23.65
2023-05-21T09:50:20.636Z,23.65
2023-05-21T09:51:20.622Z,23.65
2023-05-21T09:52:20.618Z,23.66
2023-05-21T09:53:20.604Z,23.66
2023-05-21T09:54:20.604Z,23.67
2023-05-21T09:55:20.588Z,23.66
2023-05-21T09:56:20.607Z,23.68
2023-05-21T09:57:20.575Z,23.67
2023-05-21T09:58:20.573Z,23.67
2023-05-21T09:59:20.562Z,23.67
2023-05-21T10:00:20.568Z,23.67
2023-05-21T10:01:20.618Z,23.67
2023-05-21T10:02:20.582Z,23.67
2023-05-21T10:03:20.578Z,23.68
2023-05-21T10:04:20.594Z,23.67
2023-05-21T10:05:20.544Z,23.67
2023-05-21T10:06:20.529Z,23.67
2023-05-21T10:07:20.530Z,23.67
2023-05-21T10:08:20.529Z,23.67
2023-05-21T10:09:20.596Z,23.68
2023-05-21T10:10:20.546Z,23.68
2023-05-21T10:11:20.532Z,23.68
2023-05-21T10:12:20.514Z,23.68
2023-05-21T10:13:20.506Z,23.68
2023-05-21T10:14:20.494Z,23.68
2023-05-21T10:15:20.472Z,23.69
2023-05-21T10:16:20.492Z,23.69
2023-05-21T10:17:20.545Z,23.69
2023-05-21T10:18:20.444Z,23.70
2023-05-21T10:19:20.457Z,23.70
2023-05-21T10:20:20.439Z,23.70
2023-05-21T10:21:20.416Z,23.70
2023-05-21T10:22:20.404Z,23.72
2023-05-21T10:23:20.392Z,23.72
2023-05-21T10:24:20.386Z,23.72
2023-05-21T10:25:20.361Z,23.73
2023-05-21T10:26:20.343Z,23.73
2023-05-21T10:27:20.322Z,23.74
2023-05-21T10:28:20.322Z,23.74
2023-05-21T10:29:20.300Z,23.75
2023-05-21T10:30:20.292Z,23.75
2023-05-21T10:31:20.295Z,23.76
2023-05-21T10:32:20.485Z,23.76
2023-05-21T10:33:20.297Z,23.76
2023-05-21T10:34:20.259Z,23.77
2023-05-21T10:35:20.336Z,23.78
2023-05-21T10:36:20.256Z,23.79
2023-05-21T10:37:20.205Z,23.79
2023-05-21T10:38:20.194Z,23.79
2023-05-21T10:39:20.193Z,23.80
2023-05-21T10:40:20.189Z,23.80
2023-05-21T10:41:20.217Z,23.80
2023-05-21T10:42:20.209Z,23.80
2023-05-21T10:43:20.182Z,23.80
2023-05-21T10:44:20.171Z,23.80
2023-05-21T10:45:20.163Z,23.80
2023-05-21T10:46:20.314Z,23.80
2023-05-21T10:47:20.234Z,23.80
2023-05-21T10:48:20.313Z,23.80
2023-05-21T10:49:20.228Z,23.81
2023-05-21T10:50:20.231Z,23.80
2023-05-21T10:51:20.245Z,23.81
2023-05-21T10:52:20.158Z,23.81
2023-05-21T10:53:20.133Z,23.81
2023-05-21T10:54:20.118Z,23.82
2023-05-21T10:55:20.112Z,23.83
2023-05-21T10:56:20.086Z,23.84
2023-05-21T10:57:20.076Z,23.84
2023-05-21T10:58:20.056Z,23.84
2023-05-21T10:59:20.048Z,23.83
2023-05-21T11:00:20.030Z,23.83
2023-05-21T11:01:20.086Z,23.84
2023-05-21T11:02:20.066Z,23.83
2023-05-21T11:03:20.152Z,23.84
2023-05-21T11:04:19.997Z,23.85
2023-05-21T11:05:20.014Z,23.84
2023-05-21T11:06:20.065Z,23.85
2023-05-21T11:07:20.095Z,23.85
2023-05-21T11:08:20.174Z,23.85
2023-05-21T11:09:20.190Z,23.85
2023-05-21T11:10:20.223Z,23.85
2023-05-21T11:11:20.222Z,23.85
2023-05-21T11:12:20.284Z,23.85
2023-05-21T11:13:20.375Z,23.85
2023-05-21T11:14:20.928Z,23.85
2023-05-21T11:15:20.401Z,23.86
2023-05-21T11:16:20.467Z,23.86
2023-05-21T11:17:20.581Z,23.86
2023-05-21T11:18:20.426Z,23.86
2023-05-21T11:19:20.590Z,23.87
2023-05-21T11:20:20.499Z,23.86
2023-05-21T11:21:20.480Z,23.87
2023-05-21T11:22:20.554Z,23.87
2023-05-21T11:23:20.541Z,23.87
2023-05-21T11:24:20.894Z,23.87
2023-05-21T11:25:20.636Z,23.88
2023-05-21T11:26:20.670Z,23.89
2023-05-21T11:27:20.663Z,23.88
2023-05-21T11:28:20.709Z,23.89
2023-05-21T11:29:20.771Z,23.89
2023-05-21T11:30:20.818Z,23.89
2023-05-21T11:31:20.876Z,23.89
2023-05-21T11:32:20.899Z,23.90
2023-05-21T11:33:20.927Z,23.91
2023-05-21T11:34:20.973Z,23.90
2023-05-21T11:35:21.036Z,23.90
2023-05-21T11:36:21.100Z,23.91
2023-05-21T11:37:21.136Z,23.90
2023-05-21T11:38:21.185Z,23.91
2023-05-21T11:39:21.229Z,23.91
2023-05-21T11:40:21.283Z,23.91
2023-05-21T11:41:21.301Z,23.91
2023-05-21T11:42:21.362Z,23.92
2023-05-21T11:43:21.431Z,23.91
2023-05-21T11:44:21.444Z,23.92
2023-05-21T11:45:21.480Z,23.92
2023-05-21T11:46:21.515Z,23.92
2023-05-21T11:47:21.535Z,23.92
2023-05-21T11:48:21.561Z,23.93
2023-05-21T11:49:21.581Z,23.92
2023-05-21T11:50:21.666Z,23.94
2023-05-21T11:51:21.617Z,23.94
2023-05-21T11:52:21.600Z,23.94
2023-05-21T11:53:21.677Z,23.94
2023-05-21T11:54:21.651Z,23.93
2023-05-21T11:55:21.645Z,23.94
2023-05-21T11:56:21.675Z,23.94
2023-05-21T11:57:21.676Z,23.95
2023-05-21T11:58:21.717Z,23.95
2023-05-21T11:59:21.713Z,23.95
2023-05-21T12:00:21.955Z,23.95
2023-05-21T12:01:21.744Z,23.95
2023-05-21T12:02:21.852Z,23.96
2023-05-21T12:03:21.868Z,23.96
2023-05-21T12:04:21.840Z,23.96
2023-05-21T12:05:21.904Z,23.95
2023-05-21T12:06:21.969Z,23.96
2023-05-21T12:07:21.986Z,23.96
2023-05-21T12:08:22.009Z,23.96
2023-05-21T12:09:22.058Z,23.97
2023-05-21T12:10:22.044Z,23.97
2023-05-21T12:11:22.050Z,23.97
2023-05-21T12:12:22.100Z,23.97
2023-05-21T12:13:22.124Z,23.97
2023-05-21T12:14:22.218Z,23.97
2023-05-21T12:15:22.182Z,23.98
2023-05-21T12:16:22.226Z,23.98
2023-05-21T12:17:22.269Z,23.99
2023-05-21T12:18:22.332Z,23.98
2023-05-21T12:19:22.353Z,23.97
2023-05-21T12:20:22.393Z,23.97
2023-05-21T12:21:22.423Z,23.96
2023-05-21T12:22:22.420Z,23.96
2023-05-21T12:23:22.473Z,23.97
2023-05-21T12:24:22.505Z,23.97
2023-05-21T12:25:22.562Z,23.97
2023-05-21T12:26:22.617Z,23.97
2023-05-21T12:27:22.649Z,23.98
2023-05-21T12:28:22.685Z,23.99
2023-05-21T12:29:22.673Z,24.00
2023-05-21T12:30:22.725Z,24.00
2023-05-21T12:31:22.839Z,24.00
2023-05-21T12:32:22.822Z,24.00
2023-05-21T12:33:25.121Z,24.01
2023-05-21T12:34:22.857Z,24.00
2023-05-21T12:35:23.401Z,24.01
2023-05-21T12:36:22.847Z,24.01
2023-05-21T12:37:22.849Z,24.01
2023-05-21T12:38:22.814Z,24.01
2023-05-21T12:39:22.795Z,24.01
2023-05-21T12:40:22.819Z,24.02
2023-05-21T12:41:22.788Z,24.01
2023-05-21T12:42:22.774Z,24.00
2023-05-21T12:43:22.752Z,24.00
2023-05-21T12:44:22.825Z,23.99
2023-05-21T12:45:22.880Z,23.99
2023-05-21T12:46:22.882Z,23.98
2023-05-21T12:47:22.900Z,23.97
2023-05-21T12:48:22.899Z,23.97
2023-05-21T12:49:22.928Z,23.97
2023-05-21T12:50:22.972Z,23.98
2023-05-21T12:51:22.949Z,23.99
2023-05-21T12:52:22.980Z,24.00
2023-05-21T12:53:23.028Z,24.01
2023-05-21T12:54:23.066Z,24.02